sensor_id;sensor_type;location;lat;lon;timestamp;P1;durP1;ratioP1;P2;durP2;ratioP2
64052;SDS011;50299;49.524;8.536;2023-07-13T00:00:12;4.53;;;2.78;;
64052;SDS011;50299;49.524;8.536;2023-07-13T00:02:42;4.85;;;2.45;;
64052;SDS011;50299;49.524;8.536;2023-07-13T00:05:09;2.83;;;2.63;;
64052;SDS011;50299;49.524;8.536;2023-07-13T00:07:35;3.03;;;2.28;;
64052;SDS011;50299;49.524;8.536;2023-07-13T00:10:02;3.53;;;2.55;;
64052;SDS011;50299;49.524;8.536;2023-07-13T00:12:31;2.42;;;2.22;;
64052;SDS011;50299;49.524;8.536;2023-07-13T00:15:00;3.10;;;2.25;;
64052;SDS011;50299;49.524;8.536;2023-07-13T00:17:30;2.65;;;2.35;;
64052;SDS011;50299;49.524;8.536;2023-07-13T00:19:56;3.30;;;2.50;;
64052;SDS011;50299;49.524;8.536;2023-07-13T00:22:25;3.38;;;1.85;;
64052;SDS011;50299;49.524;8.536;2023-07-13T00:24:53;2.05;;;1.88;;
64052;SDS011;50299;49.524;8.536;2023-07-13T00:27:23;3.22;;;1.73;;
64052;SDS011;50299;49.524;8.536;2023-07-13T00:29:52;2.42;;;2.22;;
64052;SDS011;50299;49.524;8.536;2023-07-13T00:32:19;2.15;;;2.05;;
64052;SDS011;50299;49.524;8.536;2023-07-13T00:34:45;2.72;;;1.88;;
64052;SDS011;50299;49.524;8.536;2023-07-13T00:37:14;3.80;;;1.60;;
64052;SDS011;50299;49.524;8.536;2023-07-13T00:39:44;3.90;;;2.08;;
64052;SDS011;50299;49.524;8.536;2023-07-13T00:42:11;2.88;;;2.45;;
64052;SDS011;50299;49.524;8.536;2023-07-13T00:44:38;2.90;;;1.80;;
64052;SDS011;50299;49.524;8.536;2023-07-13T00:47:06;2.65;;;2.38;;
64052;SDS011;50299;49.524;8.536;2023-07-13T00:49:33;4.18;;;1.88;;
64052;SDS011;50299;49.524;8.536;2023-07-13T00:52:06;2.25;;;2.15;;
64052;SDS011;50299;49.524;8.536;2023-07-13T00:54:44;3.25;;;1.83;;
64052;SDS011;50299;49.524;8.536;2023-07-13T00:57:14;3.80;;;2.55;;
64052;SDS011;50299;49.524;8.536;2023-07-13T00:59:45;3.38;;;2.88;;
64052;SDS011;50299;49.524;8.536;2023-07-13T01:02:14;2.72;;;2.53;;
64052;SDS011;50299;49.524;8.536;2023-07-13T01:04:41;3.67;;;2.70;;
64052;SDS011;50299;49.524;8.536;2023-07-13T01:07:12;2.75;;;2.55;;
64052;SDS011;50299;49.524;8.536;2023-07-13T01:09:39;4.47;;;2.05;;
64052;SDS011;50299;49.524;8.536;2023-07-13T01:12:08;2.78;;;2.58;;
64052;SDS011;50299;49.524;8.536;2023-07-13T01:14:34;4.07;;;2.85;;
64052;SDS011;50299;49.524;8.536;2023-07-13T01:17:01;2.78;;;2.05;;
64052;SDS011;50299;49.524;8.536;2023-07-13T01:19:36;2.50;;;2.00;;
64052;SDS011;50299;49.524;8.536;2023-07-13T01:22:06;3.42;;;3.13;;
64052;SDS011;50299;49.524;8.536;2023-07-13T01:24:38;4.63;;;2.78;;
64052;SDS011;50299;49.524;8.536;2023-07-13T01:27:06;3.00;;;2.10;;
64052;SDS011;50299;49.524;8.536;2023-07-13T01:29:34;3.70;;;2.13;;
64052;SDS011;50299;49.524;8.536;2023-07-13T01:32:08;3.03;;;2.10;;
64052;SDS011;50299;49.524;8.536;2023-07-13T01:34:37;3.75;;;3.17;;
64052;SDS011;50299;49.524;8.536;2023-07-13T01:37:04;5.38;;;2.80;;
64052;SDS011;50299;49.524;8.536;2023-07-13T01:39:31;3.90;;;3.10;;
64052;SDS011;50299;49.524;8.536;2023-07-13T01:41:58;4.55;;;2.47;;
64052;SDS011;50299;49.524;8.536;2023-07-13T01:44:24;4.75;;;2.40;;
64052;SDS011;50299;49.524;8.536;2023-07-13T01:46:52;3.25;;;2.95;;
64052;SDS011;50299;49.524;8.536;2023-07-13T01:49:18;3.92;;;2.33;;
64052;SDS011;50299;49.524;8.536;2023-07-13T01:51:45;3.15;;;2.85;;
64052;SDS011;50299;49.524;8.536;2023-07-13T01:54:11;3.15;;;2.45;;
64052;SDS011;50299;49.524;8.536;2023-07-13T01:56:38;3.60;;;3.00;;
64052;SDS011;50299;49.524;8.536;2023-07-13T01:59:06;2.90;;;2.30;;
64052;SDS011;50299;49.524;8.536;2023-07-13T02:01:32;4.28;;;3.15;;
64052;SDS011;50299;49.524;8.536;2023-07-13T02:03:59;3.38;;;2.03;;
64052;SDS011;50299;49.524;8.536;2023-07-13T02:06:25;2.70;;;2.50;;
64052;SDS011;50299;49.524;8.536;2023-07-13T02:08:52;3.20;;;2.83;;
64052;SDS011;50299;49.524;8.536;2023-07-13T02:11:18;2.25;;;2.05;;
64052;SDS011;50299;49.524;8.536;2023-07-13T02:13:44;3.42;;;2.50;;
64052;SDS011;50299;49.524;8.536;2023-07-13T02:16:11;3.22;;;2.53;;
64052;SDS011;50299;49.524;8.536;2023-07-13T02:18:38;3.70;;;2.45;;
64052;SDS011;50299;49.524;8.536;2023-07-13T02:21:05;4.35;;;3.42;;
64052;SDS011;50299;49.524;8.536;2023-07-13T02:23:31;3.72;;;2.38;;
64052;SDS011;50299;49.524;8.536;2023-07-13T02:25:58;4.35;;;2.85;;
64052;SDS011;50299;49.524;8.536;2023-07-13T02:28:26;3.42;;;2.42;;
64052;SDS011;50299;49.524;8.536;2023-07-13T02:30:53;4.13;;;3.03;;
64052;SDS011;50299;49.524;8.536;2023-07-13T02:33:30;2.85;;;2.55;;
64052;SDS011;50299;49.524;8.536;2023-07-13T02:35:56;7.57;;;3.65;;
64052;SDS011;50299;49.524;8.536;2023-07-13T02:38:23;3.75;;;2.50;;
64052;SDS011;50299;49.524;8.536;2023-07-13T02:40:49;3.33;;;3.03;;
64052;SDS011;50299;49.524;8.536;2023-07-13T02:43:15;3.95;;;2.80;;
64052;SDS011;50299;49.524;8.536;2023-07-13T02:45:45;3.78;;;2.67;;
64052;SDS011;50299;49.524;8.536;2023-07-13T02:48:13;3.53;;;2.72;;
64052;SDS011;50299;49.524;8.536;2023-07-13T02:50:40;2.30;;;2.10;;
64052;SDS011;50299;49.524;8.536;2023-07-13T02:53:06;3.72;;;2.38;;
64052;SDS011;50299;49.524;8.536;2023-07-13T02:55:33;4.32;;;2.80;;
64052;SDS011;50299;49.524;8.536;2023-07-13T02:58:00;3.70;;;2.70;;
64052;SDS011;50299;49.524;8.536;2023-07-13T03:00:27;4.00;;;2.75;;
64052;SDS011;50299;49.524;8.536;2023-07-13T03:02:54;4.50;;;2.70;;
64052;SDS011;50299;49.524;8.536;2023-07-13T03:05:23;4.78;;;4.22;;
64052;SDS011;50299;49.524;8.536;2023-07-13T03:07:50;2.95;;;2.38;;
64052;SDS011;50299;49.524;8.536;2023-07-13T03:10:16;4.28;;;2.80;;
64052;SDS011;50299;49.524;8.536;2023-07-13T03:12:43;3.92;;;2.88;;
64052;SDS011;50299;49.524;8.536;2023-07-13T03:15:09;5.80;;;3.65;;
64052;SDS011;50299;49.524;8.536;2023-07-13T03:17:36;3.72;;;2.92;;
64052;SDS011;50299;49.524;8.536;2023-07-13T03:20:02;3.72;;;2.92;;
64052;SDS011;50299;49.524;8.536;2023-07-13T03:22:29;3.45;;;3.00;;
64052;SDS011;50299;49.524;8.536;2023-07-13T03:24:55;4.43;;;3.08;;
64052;SDS011;50299;49.524;8.536;2023-07-13T03:27:22;3.78;;;2.97;;
64052;SDS011;50299;49.524;8.536;2023-07-13T03:29:48;3.95;;;2.97;;
64052;SDS011;50299;49.524;8.536;2023-07-13T03:32:15;5.00;;;3.47;;
64052;SDS011;50299;49.524;8.536;2023-07-13T03:34:41;3.85;;;3.10;;
64052;SDS011;50299;49.524;8.536;2023-07-13T03:37:08;3.17;;;2.83;;
64052;SDS011;50299;49.524;8.536;2023-07-13T03:39:38;4.65;;;2.88;;
64052;SDS011;50299;49.524;8.536;2023-07-13T03:42:04;3.70;;;3.40;;
64052;SDS011;50299;49.524;8.536;2023-07-13T03:44:31;4.97;;;3.00;;
64052;SDS011;50299;49.524;8.536;2023-07-13T03:46:58;3.92;;;2.63;;
64052;SDS011;50299;49.524;8.536;2023-07-13T03:49:25;4.75;;;3.45;;
64052;SDS011;50299;49.524;8.536;2023-07-13T03:51:51;4.25;;;3.28;;
64052;SDS011;50299;49.524;8.536;2023-07-13T03:54:19;6.65;;;4.18;;
64052;SDS011;50299;49.524;8.536;2023-07-13T03:56:46;5.00;;;3.42;;
64052;SDS011;50299;49.524;8.536;2023-07-13T03:59:12;3.47;;;2.97;;
64052;SDS011;50299;49.524;8.536;2023-07-13T04:01:39;5.43;;;3.72;;
64052;SDS011;50299;49.524;8.536;2023-07-13T04:04:05;3.72;;;3.28;;
64052;SDS011;50299;49.524;8.536;2023-07-13T04:06:32;6.32;;;3.75;;
64052;SDS011;50299;49.524;8.536;2023-07-13T04:09:00;3.50;;;3.08;;
64052;SDS011;50299;49.524;8.536;2023-07-13T04:11:28;3.58;;;3.28;;
64052;SDS011;50299;49.524;8.536;2023-07-13T04:13:57;3.42;;;3.13;;
64052;SDS011;50299;49.524;8.536;2023-07-13T04:16:24;3.70;;;3.30;;
64052;SDS011;50299;49.524;8.536;2023-07-13T04:18:51;3.72;;;3.42;;
64052;SDS011;50299;49.524;8.536;2023-07-13T04:21:21;7.05;;;3.90;;
64052;SDS011;50299;49.524;8.536;2023-07-13T04:23:48;3.53;;;3.15;;
64052;SDS011;50299;49.524;8.536;2023-07-13T04:26:15;9.15;;;4.13;;
64052;SDS011;50299;49.524;8.536;2023-07-13T04:28:41;8.48;;;3.60;;
64052;SDS011;50299;49.524;8.536;2023-07-13T04:31:07;10.57;;;4.35;;
64052;SDS011;50299;49.524;8.536;2023-07-13T04:33:34;9.70;;;3.90;;
64052;SDS011;50299;49.524;8.536;2023-07-13T04:36:01;5.63;;;3.78;;
64052;SDS011;50299;49.524;8.536;2023-07-13T04:38:30;6.28;;;3.47;;
64052;SDS011;50299;49.524;8.536;2023-07-13T04:40:59;8.18;;;5.00;;
64052;SDS011;50299;49.524;8.536;2023-07-13T04:43:27;6.13;;;3.63;;
64052;SDS011;50299;49.524;8.536;2023-07-13T04:45:55;7.57;;;3.47;;
64052;SDS011;50299;49.524;8.536;2023-07-13T04:48:23;14.55;;;5.35;;
64052;SDS011;50299;49.524;8.536;2023-07-13T04:50:54;6.25;;;4.93;;
64052;SDS011;50299;49.524;8.536;2023-07-13T04:53:23;12.48;;;5.78;;
64052;SDS011;50299;49.524;8.536;2023-07-13T04:55:50;14.02;;;5.25;;
64052;SDS011;50299;49.524;8.536;2023-07-13T04:58:17;6.45;;;4.07;;
64052;SDS011;50299;49.524;8.536;2023-07-13T05:00:46;10.63;;;5.05;;
64052;SDS011;50299;49.524;8.536;2023-07-13T05:03:12;8.15;;;4.63;;
64052;SDS011;50299;49.524;8.536;2023-07-13T05:05:39;6.38;;;3.55;;
64052;SDS011;50299;49.524;8.536;2023-07-13T05:08:06;7.63;;;4.45;;
64052;SDS011;50299;49.524;8.536;2023-07-13T05:10:33;5.38;;;4.40;;
64052;SDS011;50299;49.524;8.536;2023-07-13T05:13:01;7.60;;;3.40;;
64052;SDS011;50299;49.524;8.536;2023-07-13T05:15:27;10.00;;;4.13;;
64052;SDS011;50299;49.524;8.536;2023-07-13T05:17:53;8.95;;;3.97;;
64052;SDS011;50299;49.524;8.536;2023-07-13T05:20:20;8.55;;;4.13;;
64052;SDS011;50299;49.524;8.536;2023-07-13T05:22:46;10.75;;;4.85;;
64052;SDS011;50299;49.524;8.536;2023-07-13T05:25:17;10.32;;;4.50;;
64052;SDS011;50299;49.524;8.536;2023-07-13T05:27:43;12.48;;;4.55;;
64052;SDS011;50299;49.524;8.536;2023-07-13T05:30:12;7.68;;;4.25;;
64052;SDS011;50299;49.524;8.536;2023-07-13T05:32:39;9.20;;;3.70;;
64052;SDS011;50299;49.524;8.536;2023-07-13T05:35:06;5.18;;;2.80;;
64052;SDS011;50299;49.524;8.536;2023-07-13T05:37:33;5.70;;;2.90;;
64052;SDS011;50299;49.524;8.536;2023-07-13T05:40:00;15.85;;;3.33;;
64052;SDS011;50299;49.524;8.536;2023-07-13T05:42:27;7.13;;;2.63;;
64052;SDS011;50299;49.524;8.536;2023-07-13T05:44:53;5.85;;;3.70;;
64052;SDS011;50299;49.524;8.536;2023-07-13T05:47:20;6.05;;;2.80;;
64052;SDS011;50299;49.524;8.536;2023-07-13T05:49:47;4.13;;;2.63;;
64052;SDS011;50299;49.524;8.536;2023-07-13T05:52:13;4.72;;;2.40;;
64052;SDS011;50299;49.524;8.536;2023-07-13T05:54:39;6.55;;;2.40;;
64052;SDS011;50299;49.524;8.536;2023-07-13T05:57:06;6.00;;;3.15;;
64052;SDS011;50299;49.524;8.536;2023-07-13T05:59:32;3.78;;;2.83;;
64052;SDS011;50299;49.524;8.536;2023-07-13T06:01:59;3.22;;;2.63;;
64052;SDS011;50299;49.524;8.536;2023-07-13T06:04:26;3.25;;;2.95;;
64052;SDS011;50299;49.524;8.536;2023-07-13T06:06:52;8.05;;;3.25;;
64052;SDS011;50299;49.524;8.536;2023-07-13T06:09:19;3.40;;;3.05;;
64052;SDS011;50299;49.524;8.536;2023-07-13T06:11:46;12.02;;;5.10;;
64052;SDS011;50299;49.524;8.536;2023-07-13T06:14:12;5.95;;;3.47;;
64052;SDS011;50299;49.524;8.536;2023-07-13T06:16:39;3.65;;;2.20;;
64052;SDS011;50299;49.524;8.536;2023-07-13T06:19:06;4.03;;;2.50;;
64052;SDS011;50299;49.524;8.536;2023-07-13T06:21:33;3.50;;;2.65;;
64052;SDS011;50299;49.524;8.536;2023-07-13T06:23:59;4.47;;;2.75;;
64052;SDS011;50299;49.524;8.536;2023-07-13T06:26:26;6.15;;;2.47;;
64052;SDS011;50299;49.524;8.536;2023-07-13T06:28:52;3.20;;;2.88;;
64052;SDS011;50299;49.524;8.536;2023-07-13T06:31:19;5.18;;;2.78;;
64052;SDS011;50299;49.524;8.536;2023-07-13T06:33:47;6.00;;;2.92;;
64052;SDS011;50299;49.524;8.536;2023-07-13T06:36:14;6.28;;;2.85;;
64052;SDS011;50299;49.524;8.536;2023-07-13T06:38:41;7.05;;;2.70;;
64052;SDS011;50299;49.524;8.536;2023-07-13T06:41:07;4.10;;;2.70;;
64052;SDS011;50299;49.524;8.536;2023-07-13T06:43:39;3.15;;;2.47;;
64052;SDS011;50299;49.524;8.536;2023-07-13T06:46:09;6.28;;;2.38;;
64052;SDS011;50299;49.524;8.536;2023-07-13T06:48:38;2.72;;;1.80;;
64052;SDS011;50299;49.524;8.536;2023-07-13T06:51:05;5.13;;;1.98;;
64052;SDS011;50299;49.524;8.536;2023-07-13T06:53:31;2.83;;;1.92;;
64052;SDS011;50299;49.524;8.536;2023-07-13T06:55:58;4.63;;;2.65;;
64052;SDS011;50299;49.524;8.536;2023-07-13T06:58:25;4.80;;;2.05;;
64052;SDS011;50299;49.524;8.536;2023-07-13T07:00:52;6.40;;;2.53;;
64052;SDS011;50299;49.524;8.536;2023-07-13T07:03:19;6.80;;;2.88;;
64052;SDS011;50299;49.524;8.536;2023-07-13T07:05:46;4.68;;;2.22;;
64052;SDS011;50299;49.524;8.536;2023-07-13T07:08:13;5.85;;;2.33;;
64052;SDS011;50299;49.524;8.536;2023-07-13T07:10:40;4.32;;;2.33;;
64052;SDS011;50299;49.524;8.536;2023-07-13T07:13:06;7.53;;;2.00;;
64052;SDS011;50299;49.524;8.536;2023-07-13T07:15:34;3.97;;;1.75;;
64052;SDS011;50299;49.524;8.536;2023-07-13T07:18:01;2.75;;;1.70;;
64052;SDS011;50299;49.524;8.536;2023-07-13T07:20:27;6.32;;;1.60;;
64052;SDS011;50299;49.524;8.536;2023-07-13T07:22:54;6.97;;;2.28;;
64052;SDS011;50299;49.524;8.536;2023-07-13T07:25:21;3.15;;;1.77;;
64052;SDS011;50299;49.524;8.536;2023-07-13T07:27:47;3.13;;;1.92;;
64052;SDS011;50299;49.524;8.536;2023-07-13T07:30:17;3.15;;;2.08;;
64052;SDS011;50299;49.524;8.536;2023-07-13T07:32:46;5.55;;;2.45;;
64052;SDS011;50299;49.524;8.536;2023-07-13T07:35:15;3.15;;;2.33;;
64052;SDS011;50299;49.524;8.536;2023-07-13T07:37:42;3.30;;;2.45;;
64052;SDS011;50299;49.524;8.536;2023-07-13T07:40:11;5.88;;;2.00;;
64052;SDS011;50299;49.524;8.536;2023-07-13T07:42:41;3.42;;;1.90;;
64052;SDS011;50299;49.524;8.536;2023-07-13T07:45:07;5.45;;;2.13;;
64052;SDS011;50299;49.524;8.536;2023-07-13T07:47:34;4.25;;;1.95;;
64052;SDS011;50299;49.524;8.536;2023-07-13T07:50:00;3.55;;;2.17;;
64052;SDS011;50299;49.524;8.536;2023-07-13T07:52:27;6.95;;;2.63;;
64052;SDS011;50299;49.524;8.536;2023-07-13T07:54:53;3.88;;;2.42;;
64052;SDS011;50299;49.524;8.536;2023-07-13T07:57:23;4.72;;;2.33;;
64052;SDS011;50299;49.524;8.536;2023-07-13T07:59:53;6.07;;;2.83;;
64052;SDS011;50299;49.524;8.536;2023-07-13T08:02:22;4.22;;;2.63;;
64052;SDS011;50299;49.524;8.536;2023-07-13T08:04:57;5.05;;;2.22;;
64052;SDS011;50299;49.524;8.536;2023-07-13T08:07:27;4.38;;;2.50;;
64052;SDS011;50299;49.524;8.536;2023-07-13T08:09:54;3.10;;;2.20;;
64052;SDS011;50299;49.524;8.536;2023-07-13T08:12:20;5.55;;;2.67;;
64052;SDS011;50299;49.524;8.536;2023-07-13T08:14:50;5.10;;;2.55;;
64052;SDS011;50299;49.524;8.536;2023-07-13T08:17:22;4.97;;;2.55;;
64052;SDS011;50299;49.524;8.536;2023-07-13T08:19:49;3.33;;;2.30;;
64052;SDS011;50299;49.524;8.536;2023-07-13T08:22:16;4.13;;;1.90;;
64052;SDS011;50299;49.524;8.536;2023-07-13T08:24:43;3.85;;;2.28;;
64052;SDS011;50299;49.524;8.536;2023-07-13T08:27:10;4.30;;;2.00;;
64052;SDS011;50299;49.524;8.536;2023-07-13T08:29:40;4.28;;;2.42;;
64052;SDS011;50299;49.524;8.536;2023-07-13T08:32:06;2.97;;;1.92;;
64052;SDS011;50299;49.524;8.536;2023-07-13T08:34:42;5.25;;;2.30;;
64052;SDS011;50299;49.524;8.536;2023-07-13T08:37:09;3.40;;;1.65;;
64052;SDS011;50299;49.524;8.536;2023-07-13T08:39:35;4.38;;;1.92;;
64052;SDS011;50299;49.524;8.536;2023-07-13T08:42:07;4.05;;;1.45;;
64052;SDS011;50299;49.524;8.536;2023-07-13T08:47:32;4.05;;;2.10;;
64052;SDS011;50299;49.524;8.536;2023-07-13T08:50:03;4.95;;;2.17;;
64052;SDS011;50299;49.524;8.536;2023-07-13T08:52:32;5.38;;;2.20;;
64052;SDS011;50299;49.524;8.536;2023-07-13T08:55:19;3.42;;;2.15;;
64052;SDS011;50299;49.524;8.536;2023-07-13T08:57:53;4.38;;;1.80;;
64052;SDS011;50299;49.524;8.536;2023-07-13T09:00:26;2.88;;;1.40;;
64052;SDS011;50299;49.524;8.536;2023-07-13T09:03:04;3.25;;;1.80;;
64052;SDS011;50299;49.524;8.536;2023-07-13T09:05:39;4.82;;;2.08;;
64052;SDS011;50299;49.524;8.536;2023-07-13T09:10:53;4.60;;;1.83;;
64052;SDS011;50299;49.524;8.536;2023-07-13T09:13:31;5.60;;;1.95;;
64052;SDS011;50299;49.524;8.536;2023-07-13T09:16:06;4.57;;;2.03;;
64052;SDS011;50299;49.524;8.536;2023-07-13T09:18:37;5.10;;;1.75;;
64052;SDS011;50299;49.524;8.536;2023-07-13T09:21:14;7.68;;;1.90;;
64052;SDS011;50299;49.524;8.536;2023-07-13T09:23:44;7.65;;;2.42;;
64052;SDS011;50299;49.524;8.536;2023-07-13T09:26:21;4.90;;;1.98;;
64052;SDS011;50299;49.524;8.536;2023-07-13T09:28:51;4.38;;;2.20;;
64052;SDS011;50299;49.524;8.536;2023-07-13T09:33:57;4.50;;;2.28;;
64052;SDS011;50299;49.524;8.536;2023-07-13T09:36:25;4.32;;;2.03;;
64052;SDS011;50299;49.524;8.536;2023-07-13T09:38:58;5.80;;;1.50;;
64052;SDS011;50299;49.524;8.536;2023-07-13T09:41:37;3.38;;;1.77;;
64052;SDS011;50299;49.524;8.536;2023-07-13T09:44:14;4.97;;;1.27;;
64052;SDS011;50299;49.524;8.536;2023-07-13T09:46:46;6.70;;;2.17;;
64052;SDS011;50299;49.524;8.536;2023-07-13T09:49:18;13.23;;;3.20;;
64052;SDS011;50299;49.524;8.536;2023-07-13T09:51:49;6.45;;;1.50;;
64052;SDS011;50299;49.524;8.536;2023-07-13T09:54:24;2.97;;;1.63;;
64052;SDS011;50299;49.524;8.536;2023-07-13T09:56:56;6.75;;;1.95;;
64052;SDS011;50299;49.524;8.536;2023-07-13T09:59:26;5.72;;;1.75;;
64052;SDS011;50299;49.524;8.536;2023-07-13T10:01:55;1.52;;;1.42;;
64052;SDS011;50299;49.524;8.536;2023-07-13T10:04:27;2.80;;;1.60;;
64052;SDS011;50299;49.524;8.536;2023-07-13T10:07:06;4.63;;;1.75;;
64052;SDS011;50299;49.524;8.536;2023-07-13T10:09:56;2.95;;;1.77;;
64052;SDS011;50299;49.524;8.536;2023-07-13T10:12:24;2.78;;;2.28;;
64052;SDS011;50299;49.524;8.536;2023-07-13T10:14:52;2.80;;;1.85;;
64052;SDS011;50299;49.524;8.536;2023-07-13T10:17:33;5.45;;;2.20;;
64052;SDS011;50299;49.524;8.536;2023-07-13T10:20:02;2.95;;;1.73;;
64052;SDS011;50299;49.524;8.536;2023-07-13T10:25:21;4.43;;;2.20;;
64052;SDS011;50299;49.524;8.536;2023-07-13T10:27:52;3.05;;;2.03;;
64052;SDS011;50299;49.524;8.536;2023-07-13T10:30:24;3.95;;;2.08;;
64052;SDS011;50299;49.524;8.536;2023-07-13T10:32:57;1.88;;;1.77;;
64052;SDS011;50299;49.524;8.536;2023-07-13T10:35:26;3.03;;;2.17;;
64052;SDS011;50299;49.524;8.536;2023-07-13T10:38:02;2.47;;;1.63;;
64052;SDS011;50299;49.524;8.536;2023-07-13T10:40:39;5.43;;;1.55;;
64052;SDS011;50299;49.524;8.536;2023-07-13T10:43:17;10.40;;;2.53;;
64052;SDS011;50299;49.524;8.536;2023-07-13T10:45:46;2.90;;;1.92;;
64052;SDS011;50299;49.524;8.536;2023-07-13T10:48:16;4.18;;;1.73;;
64052;SDS011;50299;49.524;8.536;2023-07-13T10:50:44;2.90;;;1.90;;
64052;SDS011;50299;49.524;8.536;2023-07-13T10:53:18;1.58;;;1.30;;
64052;SDS011;50299;49.524;8.536;2023-07-13T10:58:21;2.75;;;1.70;;
64052;SDS011;50299;49.524;8.536;2023-07-13T11:11:36;3.15;;;1.50;;
64052;SDS011;50299;49.524;8.536;2023-07-13T11:14:27;2.80;;;1.15;;
64052;SDS011;50299;49.524;8.536;2023-07-13T11:16:54;1.88;;;1.77;;
64052;SDS011;50299;49.524;8.536;2023-07-13T11:24:49;3.30;;;1.38;;
64052;SDS011;50299;49.524;8.536;2023-07-13T11:27:33;2.67;;;1.70;;
64052;SDS011;50299;49.524;8.536;2023-07-13T11:32:43;2.47;;;1.20;;
64052;SDS011;50299;49.524;8.536;2023-07-13T11:35:14;8.38;;;2.00;;
64052;SDS011;50299;49.524;8.536;2023-07-13T11:37:47;2.10;;;1.52;;
64052;SDS011;50299;49.524;8.536;2023-07-13T11:40:14;4.10;;;1.80;;
64052;SDS011;50299;49.524;8.536;2023-07-13T11:42:41;4.97;;;1.88;;
64052;SDS011;50299;49.524;8.536;2023-07-13T11:45:20;2.75;;;1.85;;
64052;SDS011;50299;49.524;8.536;2023-07-13T11:50:58;5.22;;;1.75;;
64052;SDS011;50299;49.524;8.536;2023-07-13T11:53:29;9.30;;;2.53;;
64052;SDS011;50299;49.524;8.536;2023-07-13T11:56:06;2.75;;;1.70;;
64052;SDS011;50299;49.524;8.536;2023-07-13T11:58:33;3.22;;;1.83;;
64052;SDS011;50299;49.524;8.536;2023-07-13T12:01:03;3.13;;;1.65;;
64052;SDS011;50299;49.524;8.536;2023-07-13T12:03:32;2.55;;;1.55;;
64052;SDS011;50299;49.524;8.536;2023-07-13T12:06:02;4.97;;;2.35;;
64052;SDS011;50299;49.524;8.536;2023-07-13T12:08:38;2.58;;;1.38;;
64052;SDS011;50299;49.524;8.536;2023-07-13T12:11:17;2.88;;;1.30;;
64052;SDS011;50299;49.524;8.536;2023-07-13T12:13:44;2.15;;;1.65;;
64052;SDS011;50299;49.524;8.536;2023-07-13T12:16:20;3.28;;;1.40;;
64052;SDS011;50299;49.524;8.536;2023-07-13T12:18:55;3.28;;;1.70;;
64052;SDS011;50299;49.524;8.536;2023-07-13T12:21:26;2.30;;;1.52;;
64052;SDS011;50299;49.524;8.536;2023-07-13T12:23:57;3.50;;;1.92;;
64052;SDS011;50299;49.524;8.536;2023-07-13T12:26:24;3.10;;;2.13;;
64052;SDS011;50299;49.524;8.536;2023-07-13T12:28:54;1.73;;;1.63;;
64052;SDS011;50299;49.524;8.536;2023-07-13T12:33:58;4.53;;;2.17;;
64052;SDS011;50299;49.524;8.536;2023-07-13T12:36:29;7.07;;;2.15;;
64052;SDS011;50299;49.524;8.536;2023-07-13T12:39:00;6.50;;;2.03;;
64052;SDS011;50299;49.524;8.536;2023-07-13T12:41:36;4.90;;;1.77;;
64052;SDS011;50299;49.524;8.536;2023-07-13T12:44:03;2.92;;;1.80;;
64052;SDS011;50299;49.524;8.536;2023-07-13T12:46:30;5.28;;;1.83;;
64052;SDS011;50299;49.524;8.536;2023-07-13T12:48:57;4.20;;;2.08;;
64052;SDS011;50299;49.524;8.536;2023-07-13T12:51:42;3.75;;;2.38;;
64052;SDS011;50299;49.524;8.536;2023-07-13T12:54:13;8.02;;;2.45;;
64052;SDS011;50299;49.524;8.536;2023-07-13T12:56:42;4.60;;;1.80;;
64052;SDS011;50299;49.524;8.536;2023-07-13T12:59:15;4.15;;;1.60;;
64052;SDS011;50299;49.524;8.536;2023-07-13T13:01:45;2.85;;;1.83;;
64052;SDS011;50299;49.524;8.536;2023-07-13T13:04:12;4.75;;;2.05;;
64052;SDS011;50299;49.524;8.536;2023-07-13T13:06:40;4.28;;;1.90;;
64052;SDS011;50299;49.524;8.536;2023-07-13T13:09:12;3.60;;;1.60;;
64052;SDS011;50299;49.524;8.536;2023-07-13T13:11:40;3.60;;;2.28;;
64052;SDS011;50299;49.524;8.536;2023-07-13T13:14:08;5.90;;;1.92;;
64052;SDS011;50299;49.524;8.536;2023-07-13T13:16:38;4.57;;;1.75;;
64052;SDS011;50299;49.524;8.536;2023-07-13T13:19:19;3.53;;;2.10;;
64052;SDS011;50299;49.524;8.536;2023-07-13T13:21:48;3.40;;;1.92;;
64052;SDS011;50299;49.524;8.536;2023-07-13T13:24:20;3.63;;;2.33;;
64052;SDS011;50299;49.524;8.536;2023-07-13T13:26:48;4.82;;;2.10;;
64052;SDS011;50299;49.524;8.536;2023-07-13T13:31:47;4.18;;;2.05;;
64052;SDS011;50299;49.524;8.536;2023-07-13T13:34:14;4.22;;;2.08;;
64052;SDS011;50299;49.524;8.536;2023-07-13T13:39:20;3.88;;;2.03;;
64052;SDS011;50299;49.524;8.536;2023-07-13T13:41:50;3.95;;;2.08;;
64052;SDS011;50299;49.524;8.536;2023-07-13T13:44:18;3.63;;;2.15;;
64052;SDS011;50299;49.524;8.536;2023-07-13T13:46:46;5.45;;;2.60;;
64052;SDS011;50299;49.524;8.536;2023-07-13T13:49:15;3.80;;;2.10;;
64052;SDS011;50299;49.524;8.536;2023-07-13T13:51:44;2.28;;;2.08;;
64052;SDS011;50299;49.524;8.536;2023-07-13T13:54:15;4.07;;;2.55;;
64052;SDS011;50299;49.524;8.536;2023-07-13T13:56:43;4.07;;;2.58;;
64052;SDS011;50299;49.524;8.536;2023-07-13T13:59:11;4.10;;;2.67;;
64052;SDS011;50299;49.524;8.536;2023-07-13T14:01:38;4.50;;;1.75;;
64052;SDS011;50299;49.524;8.536;2023-07-13T14:04:09;3.38;;;1.58;;
64052;SDS011;50299;49.524;8.536;2023-07-13T14:06:44;6.07;;;2.03;;
64052;SDS011;50299;49.524;8.536;2023-07-13T14:09:12;4.47;;;2.28;;
64052;SDS011;50299;49.524;8.536;2023-07-13T14:11:41;3.97;;;2.47;;
64052;SDS011;50299;49.524;8.536;2023-07-13T14:14:11;2.75;;;1.60;;
64052;SDS011;50299;49.524;8.536;2023-07-13T14:16:44;4.03;;;1.83;;
64052;SDS011;50299;49.524;8.536;2023-07-13T14:19:13;2.70;;;1.92;;
64052;SDS011;50299;49.524;8.536;2023-07-13T14:21:41;2.22;;;1.30;;
64052;SDS011;50299;49.524;8.536;2023-07-13T14:24:08;2.13;;;1.50;;
64052;SDS011;50299;49.524;8.536;2023-07-13T14:26:38;3.05;;;2.05;;
64052;SDS011;50299;49.524;8.536;2023-07-13T14:29:13;2.53;;;1.95;;
64052;SDS011;50299;49.524;8.536;2023-07-13T14:31:43;4.30;;;1.70;;
64052;SDS011;50299;49.524;8.536;2023-07-13T14:34:11;3.85;;;1.85;;
64052;SDS011;50299;49.524;8.536;2023-07-13T14:36:42;2.40;;;1.90;;
64052;SDS011;50299;49.524;8.536;2023-07-13T14:39:12;3.55;;;1.70;;
64052;SDS011;50299;49.524;8.536;2023-07-13T14:41:50;4.32;;;2.08;;
64052;SDS011;50299;49.524;8.536;2023-07-13T14:44:20;2.80;;;2.05;;
64052;SDS011;50299;49.524;8.536;2023-07-13T14:46:49;7.22;;;2.00;;
64052;SDS011;50299;49.524;8.536;2023-07-13T14:49:30;3.90;;;1.98;;
64052;SDS011;50299;49.524;8.536;2023-07-13T14:52:08;3.20;;;2.10;;
64052;SDS011;50299;49.524;8.536;2023-07-13T14:54:38;3.70;;;2.30;;
64052;SDS011;50299;49.524;8.536;2023-07-13T14:57:11;2.67;;;2.03;;
64052;SDS011;50299;49.524;8.536;2023-07-13T14:59:39;2.35;;;1.10;;
64052;SDS011;50299;49.524;8.536;2023-07-13T15:02:25;3.00;;;2.13;;
64052;SDS011;50299;49.524;8.536;2023-07-13T15:04:58;3.63;;;1.67;;
64052;SDS011;50299;49.524;8.536;2023-07-13T15:07:24;1.88;;;1.77;;
64052;SDS011;50299;49.524;8.536;2023-07-13T15:09:52;3.10;;;1.85;;
64052;SDS011;50299;49.524;8.536;2023-07-13T15:12:19;2.60;;;1.65;;
64052;SDS011;50299;49.524;8.536;2023-07-13T15:14:46;2.65;;;1.83;;
64052;SDS011;50299;49.524;8.536;2023-07-13T15:17:18;4.47;;;1.40;;
64052;SDS011;50299;49.524;8.536;2023-07-13T15:19:56;3.08;;;1.90;;
64052;SDS011;50299;49.524;8.536;2023-07-13T15:22:23;3.30;;;1.38;;
64052;SDS011;50299;49.524;8.536;2023-07-13T15:24:50;2.65;;;1.83;;
64052;SDS011;50299;49.524;8.536;2023-07-13T15:27:16;3.03;;;2.10;;
64052;SDS011;50299;49.524;8.536;2023-07-13T15:29:43;2.08;;;1.88;;
64052;SDS011;50299;49.524;8.536;2023-07-13T15:32:13;2.25;;;1.65;;
64052;SDS011;50299;49.524;8.536;2023-07-13T15:34:45;2.85;;;1.75;;
64052;SDS011;50299;49.524;8.536;2023-07-13T15:37:13;3.88;;;2.13;;
64052;SDS011;50299;49.524;8.536;2023-07-13T15:39:41;3.33;;;1.80;;
64052;SDS011;50299;49.524;8.536;2023-07-13T15:42:13;1.73;;;1.50;;